Time;durP1;ratioP1;P1;durP2;ratioP2;P2;SDS_P1;SDS_P2;PMS_P1;PMS_P2;Temp;Humidity;BMP_temperature;BMP_pressure;BME280_temperature;BME280_humidity;BME280_pressure;Samples;Min_cycle;Max_cycle;Signal;HPM_P1;HPM_P2
2022/01/09 00:00:11;;;;;;;0.93;0.93;;;;;;;1.42;99.01;96811.88;4964903;28;20172;-60
2022/01/09 00:02:36;;;;;;;0.85;0.85;;;;;;;1.43;98.56;96792.34;4979872;28;20427;-60
2022/01/09 00:05:02;;;;;;;0.82;0.82;;;;;;;1.45;98.59;96800.81;4972862;28;20027;-60
2022/01/09 00:07:27;;;;;;;1.45;1.35;;;;;;;1.46;98.38;96802.41;4971491;28;20027;-60
2022/01/09 00:09:53;;;;;;;1.08;0.80;;;;;;;1.39;98.57;96795.69;4967647;28;20030;-60
2022/01/09 00:12:18;;;;;;;1.10;1.00;;;;;;;1.38;98.44;96794.91;4975029;28;20448;-60
2022/01/09 00:14:44;;;;;;;1.00;1.00;;;;;;;1.39;98.53;96790.44;4970715;28;20034;-60
2022/01/09 00:17:09;;;;;;;0.90;0.90;;;;;;;1.35;98.42;96784.84;4965646;28;20039;-60
2022/01/09 00:19:35;;;;;;;1.98;1.02;;;;;;;1.32;98.59;96801.16;4973366;28;20101;-60
2022/01/09 00:22:00;;;;;;;0.63;0.63;;;;;;;1.32;98.56;96780.03;4971045;28;20043;-59
2022/01/09 00:24:25;;;;;;;0.75;0.75;;;;;;;1.32;98.59;96782.66;4969108;28;20035;-60
2022/01/09 00:26:51;;;;;;;1.20;1.10;;;;;;;1.29;99.05;96767.31;4968427;28;20069;-60
2022/01/09 00:29:16;;;;;;;1.08;0.98;;;;;;;1.34;99.10;96770.03;4971415;28;20034;-60
2022/01/09 00:31:42;;;;;;;1.27;1.08;;;;;;;1.36;98.92;96760.03;4971424;28;20027;-60
2022/01/09 00:34:07;;;;;;;0.80;0.80;;;;;;;1.30;99.05;96755.75;4964170;28;20037;-60
2022/01/09 00:36:32;;;;;;;0.90;0.90;;;;;;;1.25;99.07;96753.84;4973423;28;20051;-60
2022/01/09 00:38:58;;;;;;;1.10;0.98;;;;;;;1.26;99.29;96750.13;4966966;28;20275;-60
2022/01/09 00:41:23;;;;;;;0.80;0.80;;;;;;;1.28;99.37;96749.91;4970537;28;20501;-60
2022/01/09 00:43:50;;;;;;;0.98;0.98;;;;;;;1.23;99.42;96750.63;4970401;28;20058;-59
2022/01/09 00:46:15;;;;;;;0.70;0.70;;;;;;;1.17;99.88;96745.53;4972561;28;20081;-60
2022/01/09 00:48:41;;;;;;;1.00;1.00;;;;;;;1.20;99.98;96747.66;4967013;28;20030;-60
2022/01/09 00:51:06;;;;;;;1.17;1.08;;;;;;;1.22;100.00;96735.84;4973467;28;20030;-60
2022/01/09 00:53:31;;;;;;;2.08;0.90;;;;;;;1.21;100.00;96733.44;4972829;28;20524;-60
2022/01/09 00:55:57;;;;;;;2.60;0.98;;;;;;;1.19;100.00;96738.16;4975876;28;20047;-60
2022/01/09 00:58:22;;;;;;;0.90;0.90;;;;;;;1.21;100.00;96736.88;4967287;28;20548;-60
2022/01/09 01:00:48;;;;;;;1.40;1.00;;;;;;;1.20;100.00;96734.47;4971400;28;20105;-60
2022/01/09 01:03:13;;;;;;;1.10;1.00;;;;;;;1.27;100.00;96745.66;4966315;28;20476;-60
2022/01/09 01:05:38;;;;;;;0.80;0.80;;;;;;;1.21;100.00;96751.91;4972568;28;20413;-60
2022/01/09 01:08:04;;;;;;;0.80;0.80;;;;;;;1.19;100.00;96744.22;4972701;28;20368;-60
2022/01/09 01:10:29;;;;;;;1.10;1.00;;;;;;;1.19;100.00;96743.44;4964676;28;20442;-60
2022/01/09 01:12:55;;;;;;;1.30;1.13;;;;;;;1.17;100.00;96748.94;4983372;28;20473;-60
2022/01/09 01:15:20;;;;;;;0.98;0.98;;;;;;;1.13;100.00;96747.06;4969713;28;20757;-60
2022/01/09 01:17:46;;;;;;;2.53;1.35;;;;;;;1.13;100.00;96757.63;4970650;28;20472;-60
2022/01/09 01:20:11;;;;;;;2.55;1.38;;;;;;;1.15;100.00;96758.16;4970016;28;20545;-60
2022/01/09 01:22:38;;;;;;;1.42;1.10;;;;;;;1.21;100.00;96762.47;4973096;28;20543;-60
2022/01/09 01:25:05;;;;;;;1.42;0.90;;;;;;;1.22;100.00;96758.78;4966562;28;20047;-60
2022/01/09 01:27:30;;;;;;;1.20;1.10;;;;;;;1.20;100.00;96756.41;4976128;28;20066;-60
2022/01/09 01:29:56;;;;;;;1.77;1.13;;;;;;;1.19;100.00;96759.28;4974318;28;20760;-60
2022/01/09 01:32:22;;;;;;;2.03;1.30;;;;;;;1.18;100.00;96774.31;4970047;28;20350;-59
2022/01/09 01:34:48;;;;;;;0.90;0.90;;;;;;;1.14;100.00;96781.09;4970743;28;20469;-60
2022/01/09 01:37:14;;;;;;;0.82;0.82;;;;;;;1.20;100.00;96787.25;4974461;28;20317;-60
2022/01/09 01:39:39;;;;;;;1.15;0.90;;;;;;;1.22;100.00;96793.09;4969096;28;20041;-60
2022/01/09 01:42:05;;;;;;;2.97;1.52;;;;;;;1.15;100.00;96784.53;4984929;28;20062;-60
2022/01/09 01:44:47;;;;;;;5.20;1.75;;;;;;;1.09;100.00;96796.84;4969993;28;20458;-60
2022/01/09 01:47:13;;;;;;;2.35;1.30;;;;;;;1.16;100.00;96799.34;4976264;28;20081;-60
2022/01/09 01:49:39;;;;;;;1.80;1.05;;;;;;;1.28;100.00;96795.56;4977113;28;21501;-60
2022/01/09 01:52:05;;;;;;;1.13;1.02;;;;;;;1.34;100.00;96785.88;4986024;28;20051;-60
2022/01/09 01:54:32;;;;;;;1.48;1.13;;;;;;;1.32;100.00;96792.44;4983409;28;20125;-60
2022/01/09 01:56:57;;;;;;;1.20;1.10;;;;;;;1.27;100.00;96793.97;4972926;28;20049;-60
2022/01/09 01:59:23;;;;;;;1.58;1.10;;;;;;;1.29;100.00;96780.53;4973773;28;20070;-60
2022/01/09 02:01:48;;;;;;;2.20;1.33;;;;;;;1.27;100.00;96787.88;4983408;28;20050;-60
2022/01/09 02:04:14;;;;;;;1.50;1.10;;;;;;;1.25;100.00;96788.13;4969127;28;20039;-61
2022/01/09 02:06:39;;;;;;;2.70;1.35;;;;;;;1.23;100.00;96786.78;4970704;28;20400;-59
2022/01/09 02:09:04;;;;;;;1.90;1.20;;;;;;;1.31;100.00;96780.28;4976428;28;20034;-59
2022/01/09 02:11:30;;;;;;;1.05;1.05;;;;;;;1.33;100.00;96781.66;4977094;28;20535;-59
2022/01/09 02:13:55;;;;;;;1.20;1.10;;;;;;;1.38;100.00;96789.63;4970123;28;20034;-59
2022/01/09 02:16:21;;;;;;;1.33;1.05;;;;;;;1.49;100.00;96791.34;4970000;28;20051;-59
2022/01/09 02:18:47;;;;;;;1.20;1.02;;;;;;;1.65;100.00;96794.22;4973165;28;20381;-60
2022/01/09 02:21:13;;;;;;;1.25;1.17;;;;;;;1.61;100.00;96787.81;4976580;28;20038;-59
2022/01/09 02:23:41;;;;;;;1.10;1.10;;;;;;;1.67;100.00;96797.41;4970476;28;20041;-59
2022/01/09 02:26:06;;;;;;;1.75;1.35;;;;;;;1.69;100.00;96811.16;4968690;28;20489;-59
2022/01/09 02:28:32;;;;;;;1.20;0.95;;;;;;;1.94;100.00;96795.63;4970858;28;20114;-60
2022/01/09 02:30:57;;;;;;;1.08;1.08;;;;;;;1.84;100.00;96819.28;4968896;28;20419;-59
2022/01/09 02:33:23;;;;;;;1.10;0.95;;;;;;;2.01;100.00;96818.44;4971964;28;20046;-59
2022/01/09 02:35:51;;;;;;;1.20;1.10;;;;;;;2.13;100.00;96805.88;4971963;28;20042;-59
2022/01/09 02:38:16;;;;;;;1.63;1.38;;;;;;;2.22;100.00;96830.03;4974860;28;20038;-59
2022/01/09 02:40:42;;;;;;;1.08;1.00;;;;;;;2.36;99.15;96837.31;4974749;28;20050;-59
2022/01/09 02:43:07;;;;;;;1.27;1.08;;;;;;;2.31;98.72;96847.03;4966260;28;20050;-59
2022/01/09 02:45:33;;;;;;;0.93;0.88;;;;;;;2.34;98.28;96865.84;4968078;28;20279;-59
2022/01/09 02:48:00;;;;;;;1.00;0.80;;;;;;;2.32;97.92;96865.31;4993558;28;20088;-59
2022/01/09 02:52:55;;;;;;;1.10;0.85;;;;;;;2.29;98.06;96894.88;4995828;28;20057;-59
2022/01/09 02:55:21;;;;;;;1.00;0.90;;;;;;;2.28;97.58;96901.22;4968585;28;20059;-59
2022/01/09 02:57:54;;;;;;;1.08;0.70;;;;;;;2.28;97.27;96908.34;4976457;28;20116;-59
2022/01/09 03:00:21;;;;;;;0.82;0.82;;;;;;;2.27;97.22;96919.94;4977931;28;20031;-59
2022/01/09 03:02:47;;;;;;;0.40;0.40;;;;;;;2.21;97.10;96926.22;4974483;28;20706;-59
2022/01/09 03:05:12;;;;;;;0.70;0.70;;;;;;;2.28;96.71;96935.56;4974147;28;20046;-59
2022/01/09 03:07:39;;;;;;;0.55;0.55;;;;;;;2.18;97.32;96956.59;4971257;28;20077;-59
2022/01/09 03:10:05;;;;;;;0.68;0.68;;;;;;;2.11;97.66;96955.94;4979864;28;20520;-59
2022/01/09 03:12:30;;;;;;;0.75;0.70;;;;;;;2.01;98.40;96966.38;4974728;28;20050;-58
2022/01/09 03:14:56;;;;;;;0.95;0.93;;;;;;;2.05;97.67;96972.78;4965576;28;20064;-61
2022/01/09 03:17:21;;;;;;;0.43;0.43;;;;;;;2.09;97.03;96973.88;4971934;28;20043;-60
2022/01/09 03:19:46;;;;;;;0.70;0.70;;;;;;;2.08;97.19;96988.16;4972549;28;20053;-61
2022/01/09 03:22:12;;;;;;;0.57;0.57;;;;;;;1.92;97.79;97005.59;4970739;28;20035;-59
2022/01/09 03:24:38;;;;;;;0.55;0.55;;;;;;;1.98;97.56;97009.16;4963414;28;20057;-59
2022/01/09 03:27:03;;;;;;;0.70;0.70;;;;;;;2.06;96.75;97001.59;4971536;28;20175;-60
2022/01/09 03:29:29;;;;;;;0.55;0.55;;;;;;;1.96;96.66;97014.66;4967297;28;20046;-61
2022/01/09 03:31:54;;;;;;;0.43;0.43;;;;;;;1.82;96.91;97021.31;4976716;28;20038;-61
2022/01/09 03:34:20;;;;;;;1.17;0.50;;;;;;;1.92;97.05;97024.94;4972461;28;20054;-60
2022/01/09 03:36:46;;;;;;;0.63;0.63;;;;;;;1.87;96.70;97040.69;4973175;28;20046;-60
2022/01/09 03:39:12;;;;;;;0.50;0.50;;;;;;;1.78;96.93;97036.84;4964596;28;20026;-60
2022/01/09 03:41:37;;;;;;;0.70;0.70;;;;;;;1.81;96.85;97049.56;4971341;28;20057;-60
2022/01/09 03:44:03;;;;;;;0.50;0.50;;;;;;;1.82;97.30;97056.47;4972063;28;20057;-61
2022/01/09 03:46:28;;;;;;;0.70;0.70;;;;;;;1.72;97.61;97053.63;4967379;28;20147;-59
2022/01/09 03:48:54;;;;;;;0.50;0.50;;;;;;;1.88;96.51;97063.41;4969662;28;20027;-58
2022/01/09 03:51:21;;;;;;;0.50;0.50;;;;;;;1.93;95.97;97071.44;4967378;28;20242;-58
2022/01/09 03:53:47;;;;;;;0.60;0.60;;;;;;;1.91;96.18;97081.44;4974255;28;20866;-58
2022/01/09 03:56:12;;;;;;;0.52;0.52;;;;;;;1.99;95.84;97100.56;4966739;28;20046;-58
2022/01/09 03:58:37;;;;;;;0.80;0.80;;;;;;;1.90;96.43;97093.03;4967424;28;20049;-59
2022/01/09 04:01:06;;;;;;;0.45;0.45;;;;;;;1.90;96.16;97098.31;4970554;28;20081;-60
2022/01/09 04:03:32;;;;;;;0.80;0.70;;;;;;;1.94;96.06;97110.00;4968943;28;20149;-58
2022/01/09 04:06:00;;;;;;;1.70;1.10;;;;;;;1.92;96.31;97113.91;4969036;28;20126;-59
2022/01/09 04:08:26;;;;;;;0.60;0.60;;;;;;;1.90;97.01;97116.81;4970449;28;20869;-58
2022/01/09 04:10:51;;;;;;;2.28;0.85;;;;;;;1.93;96.54;97126.91;4966361;28;20047;-58
2022/01/09 04:13:16;;;;;;;2.22;0.82;;;;;;;1.97;95.79;97129.84;4974109;28;20042;-58
2022/01/09 04:15:49;;;;;;;0.80;0.80;;;;;;;2.01;95.39;97132.84;4971013;28;20066;-58
2022/01/09 04:18:21;;;;;;;0.85;0.80;;;;;;;2.01;95.84;97130.19;4972712;28;20356;-61
2022/01/09 04:20:46;;;;;;;2.70;1.00;;;;;;;2.07;94.97;97139.81;4982393;28;20046;-60
2022/01/09 04:23:12;;;;;;;3.10;0.80;;;;;;;2.17;94.72;97153.19;4967449;28;20022;-59
2022/01/09 04:25:38;;;;;;;1.02;0.63;;;;;;;2.20;94.63;97155.38;4969233;28;20069;-59
2022/01/09 04:28:04;;;;;;;1.77;1.15;;;;;;;2.18;95.06;97157.44;4972193;28;20470;-59
2022/01/09 04:30:29;;;;;;;4.20;1.30;;;;;;;2.17;95.23;97174.34;4969835;28;20046;-59
2022/01/09 04:32:55;;;;;;;3.45;1.48;;;;;;;2.13;95.70;97189.88;4977416;28;20035;-60
2022/01/09 04:35:20;;;;;;;4.30;1.48;;;;;;;2.15;96.29;97189.66;4963841;28;20062;-59
2022/01/09 04:37:47;;;;;;;1.65;1.08;;;;;;;2.08;95.99;97199.56;4971502;28;20034;-59
2022/01/09 04:40:14;;;;;;;1.30;1.00;;;;;;;2.05;96.74;97200.03;4965392;28;20137;-59
2022/01/09 04:42:45;;;;;;;6.35;1.17;;;;;;;2.03;97.13;97207.41;4973162;28;20023;-59
2022/01/09 04:45:13;;;;;;;0.57;0.57;;;;;;;1.97;97.57;97214.41;4964598;28;20045;-59
2022/01/09 04:47:41;;;;;;;1.63;1.30;;;;;;;2.04;97.79;97223.00;4971240;28;20031;-59
2022/01/09 04:50:10;;;;;;;0.90;0.90;;;;;;;1.86;98.28;97239.84;4973947;28;20473;-63
2022/01/09 04:52:38;;;;;;;1.48;1.02;;;;;;;1.90;98.41;97241.00;4971978;28;20495;-59
2022/01/09 04:55:04;;;;;;;2.47;1.25;;;;;;;1.89;98.25;97252.56;4975115;28;20030;-59
2022/01/09 04:57:29;;;;;;;1.88;1.05;;;;;;;1.83;98.61;97269.38;4973088;28;20030;-59
2022/01/09 04:59:55;;;;;;;2.78;1.42;;;;;;;1.78;98.82;97266.63;4970362;28;20084;-59
2022/01/09 05:02:20;;;;;;;5.45;1.48;;;;;;;1.82;98.72;97270.44;4976423;28;20058;-59
2022/01/09 05:04:46;;;;;;;4.38;1.23;;;;;;;1.91;98.33;97284.84;4977610;28;20453;-59
2022/01/09 05:07:11;;;;;;;2.40;1.40;;;;;;;1.91;98.23;97284.06;4970402;28;20043;-59
2022/01/09 05:09:36;;;;;;;6.28;1.67;;;;;;;1.96;97.93;97286.81;4976340;28;20026;-59
2022/01/09 05:12:02;;;;;;;4.88;1.83;;;;;;;2.07;96.92;97290.44;4973220;28;20141;-59
2022/01/09 05:14:27;;;;;;;5.75;2.25;;;;;;;2.05;96.59;97297.81;4970988;28;20441;-59
2022/01/09 05:16:53;;;;;;;6.95;1.77;;;;;;;2.10;96.30;97308.47;4982672;28;20722;-59
2022/01/09 05:19:21;;;;;;;7.60;2.47;;;;;;;2.16;95.40;97315.47;4973074;28;20027;-59
2022/01/09 05:21:47;;;;;;;6.75;2.10;;;;;;;2.18;95.10;97321.31;4977106;28;20143;-59
2022/01/09 05:24:12;;;;;;;8.80;2.28;;;;;;;2.22;94.97;97321.63;4972838;28;20031;-59
2022/01/09 05:26:37;;;;;;;17.67;3.03;;;;;;;2.23;95.16;97328.56;4972160;28;20082;-59
2022/01/09 05:29:03;;;;;;;11.45;2.45;;;;;;;2.25;95.03;97337.06;4975959;28;20045;-60
2022/01/09 05:31:28;;;;;;;8.18;2.63;;;;;;;2.19;96.06;97346.72;4972623;28;20043;-59
2022/01/09 05:33:54;;;;;;;10.35;1.95;;;;;;;2.19;96.65;97346.72;4971816;28;20266;-59
2022/01/09 05:36:19;;;;;;;8.48;2.63;;;;;;;2.15;97.31;97348.22;4970760;28;20105;-59
2022/01/09 05:38:44;;;;;;;14.25;2.70;;;;;;;2.15;97.47;97374.66;4979463;28;20034;-59
2022/01/09 05:41:10;;;;;;;10.38;2.58;;;;;;;2.10;97.80;97383.28;4968030;28;20043;-59
2022/01/09 05:43:36;;;;;;;7.00;2.03;;;;;;;2.08;98.35;97385.34;4976475;28;20038;-59
2022/01/09 05:46:01;;;;;;;9.32;2.40;;;;;;;2.11;98.26;97390.16;4971267;28;20047;-60
2022/01/09 05:48:27;;;;;;;6.45;2.58;;;;;;;2.12;97.96;97385.69;4969422;28;20507;-59
2022/01/09 05:50:52;;;;;;;9.93;2.83;;;;;;;2.11;97.98;97397.28;4968752;28;20047;-60
2022/01/09 05:53:17;;;;;;;9.93;3.03;;;;;;;2.12;98.23;97412.94;4971466;28;20436;-59
2022/01/09 05:55:43;;;;;;;13.77;3.10;;;;;;;2.08;98.44;97405.69;4974564;28;20046;-59
2022/01/09 05:58:08;;;;;;;10.32;3.00;;;;;;;2.06;98.43;97418.34;4970189;28;20031;-60
2022/01/09 06:00:34;;;;;;;17.08;3.85;;;;;;;2.14;97.43;97420.59;4966651;28;20069;-60
2022/01/09 06:02:59;;;;;;;15.63;3.58;;;;;;;2.11;97.99;97421.09;4972565;28;20113;-59
2022/01/09 06:05:25;;;;;;;17.35;3.28;;;;;;;2.28;96.26;97427.25;4970288;28;20077;-59
2022/01/09 06:07:50;;;;;;;13.98;3.60;;;;;;;2.44;95.29;97433.66;4984193;28;20042;-59
2022/01/09 06:10:15;;;;;;;14.68;3.47;;;;;;;2.37;95.38;97441.72;4973367;28;20039;-60
2022/01/09 06:12:41;;;;;;;18.13;4.03;;;;;;;2.34;95.45;97442.19;4975121;28;20037;-60
2022/01/09 06:15:08;;;;;;;13.68;3.42;;;;;;;2.30;95.76;97451.63;4976104;28;20037;-59
2022/01/09 06:17:38;;;;;;;13.57;3.13;;;;;;;2.41;95.19;97452.63;4966800;28;20712;-60
2022/01/09 06:20:04;;;;;;;11.50;3.67;;;;;;;2.41;94.69;97457.13;4974325;28;20065;-60
2022/01/09 06:22:29;;;;;;;10.50;3.10;;;;;;;2.41;94.47;97462.41;4993095;28;20060;-60
2022/01/09 06:24:54;;;;;;;53.13;29.38;;;;;;;2.37;94.78;97468.19;4976425;28;20042;-59
2022/01/09 06:27:21;;;;;;;21.00;12.55;;;;;;;2.40;94.99;97476.66;4972166;28;20053;-59
2022/01/09 06:29:47;;;;;;;16.42;5.15;;;;;;;2.55;93.49;97477.00;4977622;28;20042;-60
2022/01/09 06:32:12;;;;;;;21.52;4.32;;;;;;;2.48;93.72;97476.31;4979910;28;20509;-60
2022/01/09 06:34:37;;;;;;;18.77;4.53;;;;;;;2.56;92.64;97487.31;4977019;28;20481;-60
2022/01/09 06:37:03;;;;;;;15.80;4.07;;;;;;;2.46;93.33;97483.66;4978897;28;20579;-60
2022/01/09 06:39:28;;;;;;;15.85;3.95;;;;;;;2.50;93.42;97492.75;4976955;28;20034;-59
2022/01/09 06:41:54;;;;;;;16.92;4.00;;;;;;;2.48;93.84;97494.81;4979431;28;20232;-59
2022/01/09 06:44:19;;;;;;;17.38;6.00;;;;;;;2.38;94.15;97506.00;4975956;28;20572;-59
2022/01/09 06:46:45;;;;;;;16.42;5.82;;;;;;;2.33;93.96;97500.59;4974029;28;20054;-59
2022/01/09 06:49:10;;;;;;;25.08;8.45;;;;;;;2.33;93.64;97504.03;4972252;28;20065;-59
2022/01/09 06:51:36;;;;;;;15.55;4.35;;;;;;;2.38;93.59;97509.44;4974905;28;20134;-59
2022/01/09 06:54:03;;;;;;;19.15;4.35;;;;;;;2.46;92.44;97518.84;4973990;28;20141;-60
2022/01/09 06:56:28;;;;;;;12.23;3.97;;;;;;;2.46;92.12;97524.13;4966916;28;20042;-60
2022/01/09 06:58:54;;;;;;;18.55;5.60;;;;;;;2.57;91.22;97525.16;4972977;28;20025;-60
2022/01/09 07:01:19;;;;;;;17.23;4.50;;;;;;;2.46;91.67;97529.44;4971477;28;20042;-60
2022/01/09 07:03:44;;;;;;;15.88;4.47;;;;;;;2.44;92.01;97535.97;4972725;28;20030;-59
2022/01/09 07:06:10;;;;;;;16.10;7.82;;;;;;;2.33;93.03;97541.06;4968322;28;20034;-60
2022/01/09 07:08:36;;;;;;;27.45;14.60;;;;;;;2.36;93.38;97545.06;4969637;28;20026;-60
2022/01/09 07:11:02;;;;;;;19.77;11.70;;;;;;;2.36;93.70;97545.06;4971326;28;20042;-59
2022/01/09 07:13:28;;;;;;;23.85;6.05;;;;;;;2.27;93.64;97541.16;4981207;28;20476;-59
2022/01/09 07:15:53;;;;;;;15.18;5.10;;;;;;;2.30;93.96;97553.94;4965929;28;20047;-60
2022/01/09 07:18:18;;;;;;;14.45;3.92;;;;;;;2.25;94.08;97553.81;4982396;28;20034;-59
2022/01/09 07:20:44;;;;;;;16.55;4.00;;;;;;;2.23;93.66;97567.25;4968850;28;20470;-60
2022/01/09 07:23:09;;;;;;;22.00;5.13;;;;;;;2.23;93.56;97572.53;4968957;28;20023;-60
2022/01/09 07:25:35;;;;;;;17.08;4.65;;;;;;;2.36;93.06;97569.66;4976540;28;20057;-59
2022/01/09 07:28:02;;;;;;;12.15;4.57;;;;;;;2.34;92.99;97587.59;4971235;28;20039;-60
2022/01/09 07:30:28;;;;;;;21.60;3.72;;;;;;;2.35;92.18;97597.16;4973486;28;20130;-60
2022/01/09 07:32:54;;;;;;;13.60;4.50;;;;;;;2.36;92.01;97603.25;4972843;28;20034;-59
2022/01/09 07:35:19;;;;;;;9.27;3.25;;;;;;;2.45;91.65;97611.66;4976337;28;20157;-60
2022/01/09 07:37:44;;;;;;;17.98;3.83;;;;;;;2.42;91.83;97612.09;4970140;28;20035;-59
2022/01/09 07:40:11;;;;;;;15.45;3.53;;;;;;;2.43;91.36;97613.72;4967148;28;20034;-59
2022/01/09 07:42:36;;;;;;;14.68;4.00;;;;;;;2.47;90.16;97617.50;4974542;28;20041;-60
2022/01/09 07:45:06;;;;;;;12.70;2.80;;;;;;;2.54;90.36;97632.22;4966542;28;20038;-60
2022/01/09 07:47:32;;;;;;;16.40;4.22;;;;;;;2.46;90.21;97629.13;4973368;28;20042;-60
2022/01/09 07:49:57;;;;;;;14.18;3.88;;;;;;;2.52;89.84;97638.78;4969658;28;20046;-59
2022/01/09 07:52:22;;;;;;;18.58;3.38;;;;;;;2.43;90.20;97650.75;4972804;28;20049;-60
2022/01/09 07:54:48;;;;;;;10.85;2.97;;;;;;;2.43;90.13;97645.44;4974114;28;20033;-59
2022/01/09 07:57:13;;;;;;;10.38;3.70;;;;;;;2.45;89.63;97659.25;4969505;28;20043;-59
2022/01/09 07:59:38;;;;;;;10.05;3.20;;;;;;;2.38;90.28;97649.56;4969890;28;20441;-59
2022/01/09 08:02:04;;;;;;;15.85;3.30;;;;;;;2.32;90.56;97658.44;4961809;28;20401;-59
2022/01/09 08:04:30;;;;;;;16.50;3.50;;;;;;;2.26;90.85;97667.25;4972591;28;20038;-60
2022/01/09 08:06:55;;;;;;;16.70;2.97;;;;;;;2.25;91.42;97681.50;4974330;28;20049;-60
2022/01/09 08:09:21;;;;;;;15.38;2.90;;;;;;;2.23;91.82;97686.22;4968968;28;20043;-61
2022/01/09 08:11:46;;;;;;;12.32;3.13;;;;;;;2.23;92.55;97698.63;4972901;28;20038;-60
2022/01/09 08:14:11;;;;;;;9.60;2.80;;;;;;;2.33;91.29;97704.97;4971405;28;20520;-59
2022/01/09 08:16:37;;;;;;;10.82;2.50;;;;;;;2.27;92.01;97700.59;4974617;28;20050;-59
2022/01/09 08:19:02;;;;;;;7.40;2.20;;;;;;;2.22;93.08;97699.66;4974533;28;20026;-59
2022/01/09 08:21:29;;;;;;;10.70;3.10;;;;;;;2.22;93.13;97703.13;4973278;28;20146;-59
2022/01/09 08:23:55;;;;;;;9.30;3.83;;;;;;;2.15;93.38;97710.34;4970349;28;20121;-59
2022/01/09 08:26:20;;;;;;;9.10;2.97;;;;;;;2.12;93.92;97716.06;4971065;28;20034;-59
2022/01/09 08:28:48;;;;;;;5.45;2.33;;;;;;;2.14;94.22;97716.63;4979313;28;20110;-59
2022/01/09 08:31:15;;;;;;;10.57;3.00;;;;;;;2.10;94.80;97726.88;4979676;28;20043;-59
2022/01/09 08:33:40;;;;;;;13.80;4.13;;;;;;;2.11;94.16;97728.47;4971641;28;20356;-59
2022/01/09 08:36:05;;;;;;;9.27;2.55;;;;;;;2.13;93.81;97736.19;4971041;28;20485;-58
2022/01/09 08:38:31;;;;;;;8.38;2.78;;;;;;;2.10;94.07;97737.44;4971807;28;20035;-59
2022/01/09 08:40:56;;;;;;;9.95;2.42;;;;;;;2.23;93.69;97741.75;4970212;28;20046;-59
2022/01/09 08:43:22;;;;;;;9.20;3.40;;;;;;;2.24;93.89;97742.53;4972956;28;20038;-59
2022/01/09 08:45:48;;;;;;;11.02;3.47;;;;;;;2.15;93.51;97744.69;4978231;28;20489;-59
2022/01/09 08:48:14;;;;;;;18.10;3.00;;;;;;;2.20;93.90;97747.47;4984496;28;20046;-59
2022/01/09 08:50:40;;;;;;;10.75;3.92;;;;;;;2.30;92.92;97758.31;4985273;28;20038;-59
2022/01/09 08:53:05;;;;;;;9.88;3.17;;;;;;;2.31;92.71;97769.69;4972914;28;20109;-59
2022/01/09 08:55:30;;;;;;;19.52;4.35;;;;;;;2.29;92.84;97759.31;4978700;28;20057;-62
2022/01/09 08:57:59;;;;;;;12.75;3.50;;;;;;;2.41;92.76;97763.88;4986126;28;20393;-59
2022/01/09 09:00:25;;;;;;;16.25;3.33;;;;;;;2.44;92.42;97764.22;4975709;28;20078;-58
2022/01/09 09:02:51;;;;;;;8.18;2.50;;;;;;;2.52;91.58;97769.19;4971787;28;20487;-58
2022/01/09 09:05:16;;;;;;;12.38;3.15;;;;;;;2.53;91.51;97777.94;4973943;28;20031;-59
2022/01/09 09:07:41;;;;;;;19.45;3.40;;;;;;;2.55;92.39;97781.16;4974779;28;20038;-59
2022/01/09 09:10:08;;;;;;;7.93;3.00;;;;;;;2.62;90.80;97779.22;4967334;28;20026;-59
2022/01/09 09:12:34;;;;;;;12.60;3.05;;;;;;;2.67;91.24;97782.00;4975676;28;20022;-59
2022/01/09 09:15:00;;;;;;;8.02;2.80;;;;;;;2.65;90.38;97797.28;4971375;28;20053;-59
2022/01/09 09:17:27;;;;;;;12.52;3.33;;;;;;;2.63;90.20;97802.00;4974086;28;20062;-59
2022/01/09 09:19:52;;;;;;;7.55;2.75;;;;;;;2.65;90.57;97812.34;4974650;28;20124;-59
2022/01/09 09:22:17;;;;;;;11.57;3.13;;;;;;;2.65;91.20;97807.06;4973614;28;20054;-59
2022/01/09 09:24:43;;;;;;;8.82;2.85;;;;;;;2.78;90.58;97805.00;4988203;28;20484;-60
2022/01/09 09:27:08;;;;;;;12.38;2.90;;;;;;;2.87;90.02;97804.69;4971922;28;20046;-60
2022/01/09 09:29:34;;;;;;;16.48;3.67;;;;;;;2.84;89.72;97810.44;4975211;28;20037;-59
2022/01/09 09:31:59;;;;;;;7.55;2.83;;;;;;;2.87;89.44;97826.69;4973492;28;20042;-65
2022/01/09 09:34:25;;;;;;;11.30;3.22;;;;;;;2.78;90.00;97831.47;4974360;28;20107;-66
2022/01/09 09:36:52;;;;;;;11.93;3.60;;;;;;;2.85;90.31;97834.03;4961024;28;20046;-61
2022/01/09 09:39:18;;;;;;;10.75;3.13;;;;;;;2.86;89.20;97834.84;4974190;28;20037;-61
2022/01/09 09:41:43;;;;;;;13.98;3.28;;;;;;;2.84;90.31;97847.47;4975356;28;20109;-60
2022/01/09 09:44:09;;;;;;;7.82;2.95;;;;;;;2.81;90.39;97848.75;4971784;28;20018;-61
2022/01/09 09:46:35;;;;;;;16.48;3.45;;;;;;;2.88;88.45;97846.00;4987310;28;20053;-62
2022/01/09 09:49:00;;;;;;;9.57;2.90;;;;;;;2.98;88.55;97848.91;4968960;28;20112;-62
2022/01/09 09:51:27;;;;;;;6.80;2.65;;;;;;;2.96;87.95;97856.25;4972887;28;20058;-62
2022/01/09 09:53:52;;;;;;;17.77;3.53;;;;;;;2.96;88.49;97853.59;4975429;28;20061;-62
2022/01/09 09:56:18;;;;;;;11.77;3.47;;;;;;;2.88;88.69;97864.53;4970088;28;20150;-62
2022/01/09 09:58:43;;;;;;;14.05;3.45;;;;;;;2.84;89.18;97863.34;4974927;28;20073;-62
2022/01/09 10:01:23;;;;;;;11.77;3.03;;;;;;;2.85;89.68;97865.78;4975482;28;20157;-62
2022/01/09 10:03:56;;;;;;;17.73;3.38;;;;;;;2.98;89.66;97870.88;4984594;28;20117;-61
2022/01/09 10:06:42;;;;;;;8.80;3.00;;;;;;;3.11;88.41;97869.88;4988586;28;20043;-61
2022/01/09 10:09:20;;;;;;;9.68;3.47;;;;;;;3.07;88.32;97875.84;4975557;28;20030;-61
2022/01/09 10:11:56;;;;;;;9.52;3.10;;;;;;;3.18;88.26;97878.53;4976898;28;20386;-61
2022/01/09 10:14:22;;;;;;;13.05;3.40;;;;;;;3.20;88.24;97884.41;4973058;28;20523;-61
2022/01/09 10:17:10;;;;;;;9.90;2.80;;;;;;;3.18;87.50;97881.16;4972803;28;20057;-61
2022/01/09 10:19:41;;;;;;;9.18;3.13;;;;;;;3.08;90.20;97891.50;4971715;28;20121;-61
2022/01/09 10:22:08;;;;;;;17.00;2.75;;;;;;;2.98;89.96;97886.75;4975080;28;20057;-60
2022/01/09 10:24:33;;;;;;;9.10;2.70;;;;;;;3.05;90.12;97886.69;4970796;28;20031;-60
2022/01/09 10:27:00;;;;;;;5.85;3.05;;;;;;;3.10;90.23;97897.38;4974222;28;20046;-61
2022/01/09 10:29:26;;;;;;;16.70;3.75;;;;;;;3.16;89.06;97891.16;4974722;28;20062;-60
2022/01/09 10:31:51;;;;;;;9.10;3.45;;;;;;;3.32;89.24;97902.97;4973299;28;20298;-61
2022/01/09 10:34:17;;;;;;;11.02;2.90;;;;;;;3.37;88.51;97902.25;4973498;28;20046;-60
2022/01/09 10:36:51;;;;;;;9.35;2.97;;;;;;;3.44;87.49;97917.03;4970107;28;20042;-61
2022/01/09 10:39:18;;;;;;;7.32;3.20;;;;;;;3.32;88.74;97918.84;4966463;28;20030;-62
2022/01/09 10:41:58;;;;;;;9.50;2.33;;;;;;;3.09;89.44;97914.28;4970467;28;20096;-61
2022/01/09 10:44:35;;;;;;;6.05;2.38;;;;;;;3.13;89.37;97915.47;4966785;28;20176;-61
2022/01/09 10:47:02;;;;;;;6.03;2.42;;;;;;;3.23;89.23;97921.00;4967158;28;20073;-61
2022/01/09 10:49:41;;;;;;;13.32;2.05;;;;;;;3.19;88.62;97909.25;4970514;28;20544;-62
2022/01/09 10:52:27;;;;;;;5.80;2.47;;;;;;;3.23;88.87;97917.56;4972466;28;20593;-62
2022/01/09 10:54:56;;;;;;;12.30;2.70;;;;;;;3.34;89.26;97913.31;4970305;28;20034;-62
2022/01/09 10:57:24;;;;;;;;;;;;;;;3.33;88.96;97912.50;4972751;28;20062;-62
2022/01/09 10:59:50;;;;;;;5.97;2.40;;;;;;;3.39;89.03;97914.22;4969825;28;19932;-62
2022/01/09 11:02:15;;;;;;;7.18;3.08;;;;;;;3.37;89.15;97907.56;4972313;28;20050;-61
2022/01/09 11:04:42;;;;;;;9.60;3.17;;;;;;;3.44;89.11;97906.44;4975458;28;20037;-61
2022/01/09 11:07:09;;;;;;;15.50;3.60;;;;;;;3.53;89.06;97925.44;4972602;28;20046;-62
2022/01/09 11:09:34;;;;;;;6.70;2.30;;;;;;;3.48;87.74;97927.97;4966972;28;20622;-62
2022/01/09 11:12:02;;;;;;;6.32;2.53;;;;;;;3.47;88.23;97926.38;4976391;28;20055;-62
2022/01/09 11:14:28;;;;;;;5.63;2.50;;;;;;;3.57;88.36;97929.25;4969257;28;20398;-62
2022/01/09 11:16:54;;;;;;;8.23;2.88;;;;;;;3.59;88.75;97929.81;4975121;28;20121;-62
2022/01/09 11:19:24;;;;;;;9.95;2.88;;;;;;;3.71;88.62;97927.19;4982693;28;20065;-62
2022/01/09 11:21:55;;;;;;;7.38;2.78;;;;;;;3.52;89.12;97938.91;4977256;28;20506;-62
2022/01/09 11:24:20;;;;;;;7.85;2.80;;;;;;;3.44;89.91;97943.53;4971584;28;20057;-62
2022/01/09 11:26:59;;;;;;;8.85;2.97;;;;;;;3.44;90.30;97932.09;4975699;28;20500;-62
2022/01/09 11:29:51;;;;;;;7.20;2.78;;;;;;;3.69;90.59;97939.84;4973769;28;20042;-61
2022/01/09 11:32:31;;;;;;;8.75;2.70;;;;;;;3.59;89.91;97934.31;4973443;28;20138;-62
2022/01/09 11:35:11;;;;;;;7.70;3.13;;;;;;;4.07;88.41;97943.91;4972893;28;20121;-62